createdAt,value
2022-11-05T00:00:37.820Z,98938.41
2022-11-05T00:06:59.490Z,98941.69
2022-11-05T00:13:20.176Z,98950.84
2022-11-05T00:19:22.099Z,98954.97
2022-11-05T00:25:24.129Z,98966.97
2022-11-05T00:31:26.055Z,98975.13
2022-11-05T00:37:28.983Z,98977.09
2022-11-05T00:43:49.748Z,98983.28
2022-11-05T00:49:51.617Z,98999.75
2022-11-05T00:55:53.565Z,99010.31
2022-11-05T01:01:55.572Z,99008.41
2022-11-05T01:07:57.805Z,99019.22
2022-11-05T01:14:07.770Z,99023.47
2022-11-05T01:20:11.030Z,99017.88
2022-11-05T01:26:13.094Z,99023.50
2022-11-05T01:38:28.353Z,99020.91
2022-11-05T01:44:59.970Z,99016.63
2022-11-05T01:51:09.984Z,99016.53
2022-11-05T01:57:12.595Z,99016.72
2022-11-05T02:03:17.187Z,99030.50
2022-11-05T02:09:55.085Z,99022.59
2022-11-05T02:16:33.044Z,99036.97
2022-11-05T02:29:48.227Z,99037.19
2022-11-05T02:36:10.503Z,99044.63
2022-11-05T02:42:26.426Z,99047.53
2022-11-05T02:49:13.886Z,99051.28
2022-11-05T02:55:45.068Z,99056.75
2022-11-05T03:01:48.508Z,99062.38
2022-11-05T03:08:05.075Z,99058.31
2022-11-05T03:14:24.714Z,99055.84
2022-11-05T03:20:44.350Z,99063.44
2022-11-05T03:26:53.373Z,99072.31
2022-11-05T03:33:03.321Z,99074.84
2022-11-05T03:39:15.613Z,99078.44
2022-11-05T03:45:26.725Z,99091.88
2022-11-05T03:52:00.638Z,99080.50
2022-11-05T03:58:07.136Z,99091.34
2022-11-05T04:04:09.693Z,99098.34
2022-11-05T04:10:30.484Z,99110.06
2022-11-05T04:16:51.374Z,99118.06
2022-11-05T04:23:25.249Z,99129.50
2022-11-05T04:29:46.119Z,99138.00
2022-11-05T04:35:49.330Z,99128.09
2022-11-05T04:41:51.507Z,99137.97
2022-11-05T04:47:53.582Z,99145.94
2022-11-05T04:53:55.553Z,99147.94
2022-11-05T04:59:57.832Z,99156.25
2022-11-05T05:06:03.745Z,99154.06
2022-11-05T05:12:06.748Z,99172.00
2022-11-05T05:18:09.671Z,99169.75
2022-11-05T05:24:17.352Z,99178.09
2022-11-05T05:30:19.297Z,99178.09
2022-11-05T05:36:22.593Z,99175.63
2022-11-05T05:42:24.516Z,99173.28
2022-11-05T05:48:26.417Z,99189.72
2022-11-05T05:54:32.354Z,99193.03
2022-11-05T06:00:36.179Z,99218.13
2022-11-05T06:06:38.358Z,99217.94
2022-11-05T06:12:40.205Z,99224.88
2022-11-05T06:18:44.500Z,99221.50
2022-11-05T06:24:46.470Z,99228.28
2022-11-05T06:30:52.035Z,99241.06
2022-11-05T06:36:56.405Z,99245.94
2022-11-05T06:43:13.204Z,99261.31
2022-11-05T06:49:15.506Z,99261.00
2022-11-05T06:55:17.361Z,99267.78
2022-11-05T07:01:19.743Z,99270.69
2022-11-05T07:07:21.708Z,99280.09
2022-11-05T07:13:23.633Z,99285.75
2022-11-05T07:19:25.602Z,99303.19
2022-11-05T07:25:44.009Z,99304.81
2022-11-05T07:31:46.978Z,99315.09
2022-11-05T07:37:52.096Z,99325.78
2022-11-05T07:43:54.002Z,99334.25
2022-11-05T07:56:20.777Z,99370.03
2022-11-05T08:02:23.026Z,99361.50
2022-11-05T08:08:25.639Z,99372.75
2022-11-05T08:14:27.574Z,99376.94
2022-11-05T08:20:37.204Z,99383.72
2022-11-05T08:26:39.139Z,99379.44
2022-11-05T08:32:42.211Z,99395.81
2022-11-05T08:38:44.145Z,99403.81
2022-11-05T08:45:06.915Z,99398.81
2022-11-05T08:51:09.281Z,99416.22
2022-11-05T08:57:11.207Z,99411.13
2022-11-05T09:03:16.437Z,99410.72
2022-11-05T09:09:18.513Z,99411.09
2022-11-05T09:15:20.496Z,99411.91
2022-11-05T09:21:22.736Z,99418.88
2022-11-05T09:27:24.817Z,99423.81
2022-11-05T09:33:27.999Z,99425.66
2022-11-05T09:39:30.213Z,99421.16
2022-11-05T09:45:35.402Z,99431.53
2022-11-05T09:51:39.968Z,99431.69
2022-11-05T09:57:57.359Z,99445.59
2022-11-05T10:04:07.850Z,99440.81
2022-11-05T10:16:44.042Z,99441.56
2022-11-05T10:22:55.231Z,99442.59
2022-11-05T10:28:57.237Z,99442.94
2022-11-05T10:35:04.193Z,99444.78
2022-11-05T10:48:26.010Z,99441.81
2022-11-05T10:54:35.278Z,99454.88
2022-11-05T11:00:37.687Z,99461.19
2022-11-05T11:06:50.134Z,99464.47
2022-11-05T11:13:52.435Z,99457.31
2022-11-05T11:20:42.861Z,99458.31
2022-11-05T11:26:49.316Z,99458.53
2022-11-05T11:32:51.867Z,99459.69
2022-11-05T11:39:01.426Z,99454.03
2022-11-05T11:45:18.431Z,99441.50
2022-11-05T11:51:49.497Z,99449.81
2022-11-05T11:58:06.948Z,99439.25
2022-11-05T12:04:51.375Z,99445.66
2022-11-05T12:11:18.482Z,99434.50
2022-11-05T12:17:58.159Z,99433.44
2022-11-05T12:24:30.992Z,99429.28
2022-11-05T12:31:06.183Z,99417.53
2022-11-05T12:37:36.226Z,99414.69
2022-11-05T12:44:07.294Z,99402.16
2022-11-05T12:50:56.019Z,99400.44
2022-11-05T12:57:01.978Z,99398.44
2022-11-05T13:03:31.866Z,99403.00
2022-11-05T13:10:03.265Z,99401.44
2022-11-05T13:16:19.922Z,99399.03
2022-11-05T13:22:38.479Z,99389.22
2022-11-05T13:28:52.937Z,99401.06
2022-11-05T13:35:05.405Z,99402.53
2022-11-05T13:41:47.509Z,99411.59
2022-11-05T13:48:20.210Z,99407.78
2022-11-05T13:54:44.768Z,99399.94
2022-11-05T14:00:58.752Z,99404.31
2022-11-05T14:14:15.317Z,99408.38
2022-11-05T14:20:42.557Z,99415.47
2022-11-05T14:26:44.444Z,99418.78
2022-11-05T14:32:50.005Z,99411.31
2022-11-05T14:39:04.116Z,99414.84
2022-11-05T14:45:34.101Z,99421.47
2022-11-05T14:51:45.829Z,99419.94
2022-11-05T14:58:16.163Z,99432.69
2022-11-05T15:04:32.284Z,99430.16
2022-11-05T15:10:37.474Z,99427.38
2022-11-05T15:16:55.242Z,99433.03
2022-11-05T15:23:00.548Z,99443.41
2022-11-05T15:29:03.591Z,99438.25
2022-11-05T15:35:32.585Z,99431.00
2022-11-05T15:41:34.941Z,99448.16
2022-11-05T15:47:36.942Z,99446.81
2022-11-05T15:54:15.645Z,99444.59
2022-11-05T16:00:33.057Z,99448.97
2022-11-05T16:06:39.411Z,99450.69
2022-11-05T16:12:41.449Z,99456.78
2022-11-05T16:18:45.472Z,99454.59
2022-11-05T16:24:48.105Z,99458.91
2022-11-05T16:31:05.585Z,99453.63
2022-11-05T16:37:18.233Z,99451.63
2022-11-05T16:43:25.797Z,99432.84
2022-11-05T16:49:27.715Z,99442.44
2022-11-05T16:55:32.704Z,99450.00
2022-11-05T17:01:37.012Z,99448.41
2022-11-05T17:07:41.510Z,99446.69
2022-11-05T17:14:46.188Z,99461.53
2022-11-05T17:20:53.797Z,99463.69
2022-11-05T17:26:55.713Z,99467.28
2022-11-05T17:32:57.873Z,99463.81
2022-11-05T17:38:59.840Z,99463.63
2022-11-05T17:45:02.365Z,99471.75
2022-11-05T17:51:21.582Z,99475.31
2022-11-05T17:57:32.436Z,99481.41
2022-11-05T18:03:35.978Z,99488.97
2022-11-05T18:09:38.222Z,99495.38
2022-11-05T18:15:48.804Z,99486.16
2022-11-05T18:21:50.828Z,99488.66
2022-11-05T18:27:52.808Z,99490.91
2022-11-05T18:34:00.158Z,99491.75
2022-11-05T18:40:03.999Z,99486.09
2022-11-05T18:46:07.716Z,99493.75
2022-11-05T18:52:10.143Z,99485.88
2022-11-05T18:58:12.941Z,99496.78
2022-11-05T19:04:15.431Z,99487.16
2022-11-05T19:10:36.472Z,99488.16
2022-11-05T19:16:39.838Z,99478.25
2022-11-05T19:23:26.997Z,99478.09
2022-11-05T19:29:29.105Z,99489.13
2022-11-05T19:35:31.084Z,99487.09
2022-11-05T19:41:33.114Z,99493.56
2022-11-05T19:47:35.048Z,99497.44
2022-11-05T19:53:38.875Z,99492.50
2022-11-05T19:59:40.923Z,99487.38
2022-11-05T20:05:43.324Z,99490.91
2022-11-05T20:11:45.389Z,99493.63
2022-11-05T20:24:05.131Z,99482.97
2022-11-05T20:30:08.126Z,99490.59
2022-11-05T20:36:17.594Z,99491.78
2022-11-05T20:42:19.483Z,99490.25
2022-11-05T20:48:21.399Z,99497.72
2022-11-05T20:54:24.856Z,99491.97
2022-11-05T21:00:26.696Z,99491.66
2022-11-05T21:06:31.888Z,99494.28
2022-11-05T21:12:36.841Z,99496.56
2022-11-05T21:18:40.124Z,99499.91
2022-11-05T21:24:43.185Z,99502.28
2022-11-05T21:30:46.585Z,99507.84
2022-11-05T21:36:48.537Z,99501.47
2022-11-05T21:42:53.586Z,99508.22
2022-11-05T21:48:55.719Z,99506.72
2022-11-05T21:55:16.561Z,99517.06
2022-11-05T22:01:18.868Z,99518.50
2022-11-05T22:07:25.468Z,99519.81
2022-11-05T22:13:27.762Z,99512.59
2022-11-05T22:19:30.663Z,99505.91
2022-11-05T22:25:32.738Z,99509.97
2022-11-05T22:31:36.706Z,99508.00
2022-11-05T22:37:39.022Z,99501.22
2022-11-05T22:43:43.907Z,99504.09
2022-11-05T22:49:46.196Z,99487.09
2022-11-05T22:55:48.375Z,99483.75
2022-11-05T23:01:50.446Z,99488.16
2022-11-05T23:14:26.332Z,99489.16
2022-11-05T23:20:46.496Z,99492.13
2022-11-05T23:26:51.023Z,99501.97
2022-11-05T23:32:53.628Z,99474.75
2022-11-05T23:38:55.516Z,99460.31
2022-11-05T23:45:16.457Z,99450.47
2022-11-05T23:51:18.412Z,99443.91
2022-11-05T23:57:20.287Z,99449.56
